KSPI/SPI METAR and TAF weather

Enter ICAO airport designator
Station Type Date Time Source
KSPI METAR 2020/09/22 20:52 UTC NOAA

KSPI 222052Z VRB03KT 10SM CLR 25/12 A3013 RMK AO2 SLP201 T02500117 56023


Station Type Date Time Source
KSPI Decoded METAR 2020/09/22 20:52 UTC NOAA

ABRAHAM LINCOLN CAPITAL AIRPORT , IL, United States (KSPI) 39-51N 89-41W 181M
Sep 22, 2020 - 04:52 PM EDT / 2020.09.22 2052 UTC
Wind: Variable at 3 MPH (3 KT):0
Visibility: 10 mile(s):0
Sky conditions: clear
Temperature: 77.0 F (25.0 C)
Dew Point: 53.1 F (11.7 C)
Relative Humidity: 43%
Pressure (altimeter): 30.13 in. Hg (1020 hPa)
Pressure tendency: 0.07 inches (2.3 hPa) lower than three hours ago
ob: KSPI 222052Z VRB03KT 10SM CLR 25/12 A3013 RMK AO2 SLP201 T02500117 56023
cycle: 21

Station Type Date Time Source
KSPI TAF 2020/09/22 18:45 UTC NOAA

TAF KSPI 221740Z 2218/2318 19005KT P6SM FEW050 BKN250
FM230100 18003KT P6SM BKN250
FM231500 23005KT P6SM SCT050 BKN250

Example: see airport list